sensor_id;sensor_type;location;lat;lon;timestamp;temperature;humidity
5711;DHT22;61291;52.524;13.422;2023-09-30T00:01:26;17.20;99.90
5711;DHT22;61291;52.524;13.422;2023-09-30T00:03:52;17.20;99.90
5711;DHT22;61291;52.524;13.422;2023-09-30T00:06:17;17.30;99.90
5711;DHT22;61291;52.524;13.422;2023-09-30T00:08:43;17.30;99.90
5711;DHT22;61291;52.524;13.422;2023-09-30T00:11:08;17.30;99.90
5711;DHT22;61291;52.524;13.422;2023-09-30T00:13:35;17.30;99.90
5711;DHT22;61291;52.524;13.422;2023-09-30T00:16:00;17.20;99.90
5711;DHT22;61291;52.524;13.422;2023-09-30T00:18:26;17.10;99.90
5711;DHT22;61291;52.524;13.422;2023-09-30T00:20:52;16.90;99.90
5711;DHT22;61291;52.524;13.422;2023-09-30T00:23:18;16.80;99.90
5711;DHT22;61291;52.524;13.422;2023-09-30T00:25:46;16.70;99.90
5711;DHT22;61291;52.524;13.422;2023-09-30T00:28:12;16.60;99.90
5711;DHT22;61291;52.524;13.422;2023-09-30T00:30:37;16.50;99.90
5711;DHT22;61291;52.524;13.422;2023-09-30T00:33:03;16.40;99.90
5711;DHT22;61291;52.524;13.422;2023-09-30T00:35:32;16.40;99.90
5711;DHT22;61291;52.524;13.422;2023-09-30T00:37:57;16.20;99.90
5711;DHT22;61291;52.524;13.422;2023-09-30T00:40:23;16.20;99.90
5711;DHT22;61291;52.524;13.422;2023-09-30T00:42:48;16.10;99.90
5711;DHT22;61291;52.524;13.422;2023-09-30T00:45:14;16.00;99.90
5711;DHT22;61291;52.524;13.422;2023-09-30T00:47:40;16.00;99.90
5711;DHT22;61291;52.524;13.422;2023-09-30T00:50:06;15.90;99.90
5711;DHT22;61291;52.524;13.422;2023-09-30T00:52:35;15.80;99.90
5711;DHT22;61291;52.524;13.422;2023-09-30T00:55:01;15.70;99.90
5711;DHT22;61291;52.524;13.422;2023-09-30T00:57:28;15.70;99.90
5711;DHT22;61291;52.524;13.422;2023-09-30T00:59:55;15.60;99.90
5711;DHT22;61291;52.524;13.422;2023-09-30T01:02:21;15.50;99.90
5711;DHT22;61291;52.524;13.422;2023-09-30T01:04:48;15.50;99.90
5711;DHT22;61291;52.524;13.422;2023-09-30T01:07:14;15.40;99.90
5711;DHT22;61291;52.524;13.422;2023-09-30T01:09:39;15.40;99.90
5711;DHT22;61291;52.524;13.422;2023-09-30T01:12:05;15.30;99.90
5711;DHT22;61291;52.524;13.422;2023-09-30T01:14:32;15.10;99.90
5711;DHT22;61291;52.524;13.422;2023-09-30T01:17:03;15.10;99.90
5711;DHT22;61291;52.524;13.422;2023-09-30T01:19:29;15.10;99.90
5711;DHT22;61291;52.524;13.422;2023-09-30T01:21:55;15.00;99.90
5711;DHT22;61291;52.524;13.422;2023-09-30T01:24:24;14.90;99.90
5711;DHT22;61291;52.524;13.422;2023-09-30T01:26:51;14.80;99.90
5711;DHT22;61291;52.524;13.422;2023-09-30T01:29:16;14.70;99.90
5711;DHT22;61291;52.524;13.422;2023-09-30T01:31:42;14.60;99.90
5711;DHT22;61291;52.524;13.422;2023-09-30T01:34:07;14.50;99.90
5711;DHT22;61291;52.524;13.422;2023-09-30T01:36:33;14.40;99.90
5711;DHT22;61291;52.524;13.422;2023-09-30T01:38:58;14.50;99.90
5711;DHT22;61291;52.524;13.422;2023-09-30T01:41:24;14.30;99.90
5711;DHT22;61291;52.524;13.422;2023-09-30T01:43:49;14.20;99.90
5711;DHT22;61291;52.524;13.422;2023-09-30T01:46:15;14.20;99.90
5711;DHT22;61291;52.524;13.422;2023-09-30T01:48:41;14.10;99.90
5711;DHT22;61291;52.524;13.422;2023-09-30T01:51:06;14.00;99.90
5711;DHT22;61291;52.524;13.422;2023-09-30T01:53:32;13.90;99.90
5711;DHT22;61291;52.524;13.422;2023-09-30T01:55:58;13.90;99.90
5711;DHT22;61291;52.524;13.422;2023-09-30T01:58:24;13.80;99.90
5711;DHT22;61291;52.524;13.422;2023-09-30T02:00:51;13.70;99.90
5711;DHT22;61291;52.524;13.422;2023-09-30T02:03:16;13.70;99.90
5711;DHT22;61291;52.524;13.422;2023-09-30T02:05:42;13.70;99.90
5711;DHT22;61291;52.524;13.422;2023-09-30T02:08:08;13.70;99.90
5711;DHT22;61291;52.524;13.422;2023-09-30T02:10:34;13.60;99.90
5711;DHT22;61291;52.524;13.422;2023-09-30T02:12:59;13.60;99.90
5711;DHT22;61291;52.524;13.422;2023-09-30T02:15:25;13.60;99.90
5711;DHT22;61291;52.524;13.422;2023-09-30T02:17:51;13.50;99.90
5711;DHT22;61291;52.524;13.422;2023-09-30T02:20:17;13.60;99.90
5711;DHT22;61291;52.524;13.422;2023-09-30T02:22:45;13.50;99.90
5711;DHT22;61291;52.524;13.422;2023-09-30T02:25:11;13.50;99.90
5711;DHT22;61291;52.524;13.422;2023-09-30T02:27:40;13.50;99.90
5711;DHT22;61291;52.524;13.422;2023-09-30T02:30:07;13.40;99.90
5711;DHT22;61291;52.524;13.422;2023-09-30T02:32:33;13.40;99.90
5711;DHT22;61291;52.524;13.422;2023-09-30T02:34:58;13.30;99.90
5711;DHT22;61291;52.524;13.422;2023-09-30T02:37:24;13.30;99.90
5711;DHT22;61291;52.524;13.422;2023-09-30T02:39:50;13.20;99.90
5711;DHT22;61291;52.524;13.422;2023-09-30T02:42:16;13.20;99.90
5711;DHT22;61291;52.524;13.422;2023-09-30T02:44:41;13.20;99.90
5711;DHT22;61291;52.524;13.422;2023-09-30T02:47:07;13.20;99.90
5711;DHT22;61291;52.524;13.422;2023-09-30T02:49:33;13.10;99.90
5711;DHT22;61291;52.524;13.422;2023-09-30T02:51:59;13.00;99.90
5711;DHT22;61291;52.524;13.422;2023-09-30T02:54:24;13.20;99.90
5711;DHT22;61291;52.524;13.422;2023-09-30T02:56:50;13.20;99.90
5711;DHT22;61291;52.524;13.422;2023-09-30T02:59:15;13.30;99.90
5711;DHT22;61291;52.524;13.422;2023-09-30T03:01:42;13.20;99.90
5711;DHT22;61291;52.524;13.422;2023-09-30T03:04:07;13.20;99.90
5711;DHT22;61291;52.524;13.422;2023-09-30T03:06:34;13.10;99.90
5711;DHT22;61291;52.524;13.422;2023-09-30T03:09:02;13.10;99.90
5711;DHT22;61291;52.524;13.422;2023-09-30T03:11:29;13.00;99.90
5711;DHT22;61291;52.524;13.422;2023-09-30T03:13:55;12.90;99.90
5711;DHT22;61291;52.524;13.422;2023-09-30T03:16:21;13.00;99.90
5711;DHT22;61291;52.524;13.422;2023-09-30T03:18:46;13.20;99.90
5711;DHT22;61291;52.524;13.422;2023-09-30T03:21:14;13.20;99.90
5711;DHT22;61291;52.524;13.422;2023-09-30T03:23:41;13.20;99.90
5711;DHT22;61291;52.524;13.422;2023-09-30T03:26:06;13.10;99.90
5711;DHT22;61291;52.524;13.422;2023-09-30T03:28:38;13.10;99.90
5711;DHT22;61291;52.524;13.422;2023-09-30T03:31:04;13.00;99.90
5711;DHT22;61291;52.524;13.422;2023-09-30T03:33:33;13.00;99.90
5711;DHT22;61291;52.524;13.422;2023-09-30T03:35:59;13.00;99.90
5711;DHT22;61291;52.524;13.422;2023-09-30T03:38:26;12.90;99.90
5711;DHT22;61291;52.524;13.422;2023-09-30T03:40:51;12.90;99.90
5711;DHT22;61291;52.524;13.422;2023-09-30T03:43:20;12.90;99.90
5711;DHT22;61291;52.524;13.422;2023-09-30T03:45:46;12.90;99.90
5711;DHT22;61291;52.524;13.422;2023-09-30T03:48:12;12.90;99.90
5711;DHT22;61291;52.524;13.422;2023-09-30T03:50:37;12.80;99.90
5711;DHT22;61291;52.524;13.422;2023-09-30T03:53:04;12.70;99.90
5711;DHT22;61291;52.524;13.422;2023-09-30T03:55:33;12.70;99.90
5711;DHT22;61291;52.524;13.422;2023-09-30T03:57:59;12.60;99.90
5711;DHT22;61291;52.524;13.422;2023-09-30T04:00:25;12.60;99.90
5711;DHT22;61291;52.524;13.422;2023-09-30T04:02:51;12.70;99.90
5711;DHT22;61291;52.524;13.422;2023-09-30T04:05:19;12.60;99.90
5711;DHT22;61291;52.524;13.422;2023-09-30T04:07:44;12.70;99.90
5711;DHT22;61291;52.524;13.422;2023-09-30T04:10:10;12.70;99.90
5711;DHT22;61291;52.524;13.422;2023-09-30T04:12:36;12.70;99.90
5711;DHT22;61291;52.524;13.422;2023-09-30T04:15:02;12.80;99.90
5711;DHT22;61291;52.524;13.422;2023-09-30T04:17:29;12.70;99.90
5711;DHT22;61291;52.524;13.422;2023-09-30T04:19:54;12.70;99.90
5711;DHT22;61291;52.524;13.422;2023-09-30T04:22:20;12.60;99.90
5711;DHT22;61291;52.524;13.422;2023-09-30T04:24:46;12.50;99.90
5711;DHT22;61291;52.524;13.422;2023-09-30T04:27:14;12.50;99.90
5711;DHT22;61291;52.524;13.422;2023-09-30T04:29:39;12.40;99.90
5711;DHT22;61291;52.524;13.422;2023-09-30T04:32:07;12.40;99.90
5711;DHT22;61291;52.524;13.422;2023-09-30T04:34:32;12.40;99.90
5711;DHT22;61291;52.524;13.422;2023-09-30T04:36:58;12.40;99.90
5711;DHT22;61291;52.524;13.422;2023-09-30T04:39:25;12.30;99.90
5711;DHT22;61291;52.524;13.422;2023-09-30T04:41:50;12.30;99.90
5711;DHT22;61291;52.524;13.422;2023-09-30T04:44:15;12.30;99.90
5711;DHT22;61291;52.524;13.422;2023-09-30T04:46:41;12.30;99.90
5711;DHT22;61291;52.524;13.422;2023-09-30T04:49:12;12.20;99.90
5711;DHT22;61291;52.524;13.422;2023-09-30T04:51:38;12.20;99.90
5711;DHT22;61291;52.524;13.422;2023-09-30T04:54:04;12.30;99.90
5711;DHT22;61291;52.524;13.422;2023-09-30T04:56:32;12.20;99.90
5711;DHT22;61291;52.524;13.422;2023-09-30T04:58:57;12.20;99.90
5711;DHT22;61291;52.524;13.422;2023-09-30T05:01:24;12.20;99.90
5711;DHT22;61291;52.524;13.422;2023-09-30T05:03:50;12.30;99.90
5711;DHT22;61291;52.524;13.422;2023-09-30T05:06:15;12.20;99.90
5711;DHT22;61291;52.524;13.422;2023-09-30T05:08:41;12.20;99.90
5711;DHT22;61291;52.524;13.422;2023-09-30T05:11:07;12.20;99.90
5711;DHT22;61291;52.524;13.422;2023-09-30T05:13:32;12.20;99.90
5711;DHT22;61291;52.524;13.422;2023-09-30T05:15:59;12.20;99.90
5711;DHT22;61291;52.524;13.422;2023-09-30T05:18:25;12.20;99.90
5711;DHT22;61291;52.524;13.422;2023-09-30T05:20:50;12.30;99.90
5711;DHT22;61291;52.524;13.422;2023-09-30T05:23:16;12.30;99.90
5711;DHT22;61291;52.524;13.422;2023-09-30T05:25:42;12.30;99.90
5711;DHT22;61291;52.524;13.422;2023-09-30T05:28:11;12.30;99.90
5711;DHT22;61291;52.524;13.422;2023-09-30T05:30:37;12.40;99.90
5711;DHT22;61291;52.524;13.422;2023-09-30T05:33:02;12.50;99.90
5711;DHT22;61291;52.524;13.422;2023-09-30T05:35:29;12.50;99.90
5711;DHT22;61291;52.524;13.422;2023-09-30T05:37:55;12.60;99.90
5711;DHT22;61291;52.524;13.422;2023-09-30T05:40:21;12.70;99.90
5711;DHT22;61291;52.524;13.422;2023-09-30T05:42:56;12.80;99.90
5711;DHT22;61291;52.524;13.422;2023-09-30T05:45:26;12.90;99.90
5711;DHT22;61291;52.524;13.422;2023-09-30T05:47:55;13.00;99.90
5711;DHT22;61291;52.524;13.422;2023-09-30T05:50:23;13.20;99.90
5711;DHT22;61291;52.524;13.422;2023-09-30T05:52:55;13.40;99.90
5711;DHT22;61291;52.524;13.422;2023-09-30T05:55:21;13.50;99.90
5711;DHT22;61291;52.524;13.422;2023-09-30T05:57:50;13.70;99.90
5711;DHT22;61291;52.524;13.422;2023-09-30T06:00:18;13.90;99.90
5711;DHT22;61291;52.524;13.422;2023-09-30T06:02:48;14.10;99.90
5711;DHT22;61291;52.524;13.422;2023-09-30T06:05:14;14.60;99.90
5711;DHT22;61291;52.524;13.422;2023-09-30T06:07:47;15.00;99.90
5711;DHT22;61291;52.524;13.422;2023-09-30T06:10:12;15.50;99.90
5711;DHT22;61291;52.524;13.422;2023-09-30T06:12:41;16.00;99.90
5711;DHT22;61291;52.524;13.422;2023-09-30T06:15:07;16.50;99.90
5711;DHT22;61291;52.524;13.422;2023-09-30T06:17:33;17.00;99.90
5711;DHT22;61291;52.524;13.422;2023-09-30T06:19:59;17.30;99.90
5711;DHT22;61291;52.524;13.422;2023-09-30T06:22:32;17.60;99.90
5711;DHT22;61291;52.524;13.422;2023-09-30T06:24:58;17.90;99.90
5711;DHT22;61291;52.524;13.422;2023-09-30T06:27:23;17.60;99.90
5711;DHT22;61291;52.524;13.422;2023-09-30T06:29:49;17.30;99.90
5711;DHT22;61291;52.524;13.422;2023-09-30T06:32:14;17.00;99.90
5711;DHT22;61291;52.524;13.422;2023-09-30T06:34:40;16.80;99.90
5711;DHT22;61291;52.524;13.422;2023-09-30T06:37:06;16.60;99.90
5711;DHT22;61291;52.524;13.422;2023-09-30T06:39:31;16.50;99.90
5711;DHT22;61291;52.524;13.422;2023-09-30T06:41:57;16.30;99.90
5711;DHT22;61291;52.524;13.422;2023-09-30T06:44:22;16.10;99.90
5711;DHT22;61291;52.524;13.422;2023-09-30T06:46:50;16.10;99.90
5711;DHT22;61291;52.524;13.422;2023-09-30T06:49:16;16.20;99.90
5711;DHT22;61291;52.524;13.422;2023-09-30T06:51:42;16.40;99.90
5711;DHT22;61291;52.524;13.422;2023-09-30T06:54:07;16.60;99.90
5711;DHT22;61291;52.524;13.422;2023-09-30T06:56:33;16.90;99.90
5711;DHT22;61291;52.524;13.422;2023-09-30T06:58:58;17.20;99.90
5711;DHT22;61291;52.524;13.422;2023-09-30T07:01:24;17.30;99.90
5711;DHT22;61291;52.524;13.422;2023-09-30T07:03:50;17.50;99.90
5711;DHT22;61291;52.524;13.422;2023-09-30T07:06:23;17.70;99.90
5711;DHT22;61291;52.524;13.422;2023-09-30T07:08:49;17.80;99.90
5711;DHT22;61291;52.524;13.422;2023-09-30T07:11:14;17.80;99.90
5711;DHT22;61291;52.524;13.422;2023-09-30T07:13:40;17.90;99.90
5711;DHT22;61291;52.524;13.422;2023-09-30T07:16:05;18.00;99.90
5711;DHT22;61291;52.524;13.422;2023-09-30T07:18:31;18.30;99.90
5711;DHT22;61291;52.524;13.422;2023-09-30T07:20:56;18.60;99.90
5711;DHT22;61291;52.524;13.422;2023-09-30T07:23:22;18.70;99.90
5711;DHT22;61291;52.524;13.422;2023-09-30T07:25:47;18.80;99.90
5711;DHT22;61291;52.524;13.422;2023-09-30T07:28:13;18.80;99.90
5711;DHT22;61291;52.524;13.422;2023-09-30T07:30:39;18.90;99.90
5711;DHT22;61291;52.524;13.422;2023-09-30T07:33:05;18.90;99.90
5711;DHT22;61291;52.524;13.422;2023-09-30T07:35:32;19.10;99.90
5711;DHT22;61291;52.524;13.422;2023-09-30T07:37:57;19.30;99.90
5711;DHT22;61291;52.524;13.422;2023-09-30T07:40:23;19.40;99.90
5711;DHT22;61291;52.524;13.422;2023-09-30T07:42:48;19.40;99.90
5711;DHT22;61291;52.524;13.422;2023-09-30T07:45:15;19.40;99.90
5711;DHT22;61291;52.524;13.422;2023-09-30T07:47:43;19.30;99.90
5711;DHT22;61291;52.524;13.422;2023-09-30T07:50:09;19.20;99.90
5711;DHT22;61291;52.524;13.422;2023-09-30T07:52:35;19.20;99.90
5711;DHT22;61291;52.524;13.422;2023-09-30T07:55:01;19.10;99.90
5711;DHT22;61291;52.524;13.422;2023-09-30T07:57:28;19.00;99.90
5711;DHT22;61291;52.524;13.422;2023-09-30T07:59:54;19.00;99.90
5711;DHT22;61291;52.524;13.422;2023-09-30T08:02:20;19.10;99.90
5711;DHT22;61291;52.524;13.422;2023-09-30T08:04:47;19.10;99.90
5711;DHT22;61291;52.524;13.422;2023-09-30T08:07:13;19.10;99.90
5711;DHT22;61291;52.524;13.422;2023-09-30T08:09:39;19.10;99.90
5711;DHT22;61291;52.524;13.422;2023-09-30T08:12:04;19.10;99.90
5711;DHT22;61291;52.524;13.422;2023-09-30T08:14:30;19.20;99.90
5711;DHT22;61291;52.524;13.422;2023-09-30T08:16:56;19.30;99.90
5711;DHT22;61291;52.524;13.422;2023-09-30T08:19:21;19.50;99.90
5711;DHT22;61291;52.524;13.422;2023-09-30T08:21:47;19.70;99.90
5711;DHT22;61291;52.524;13.422;2023-09-30T08:24:13;19.90;99.90
5711;DHT22;61291;52.524;13.422;2023-09-30T08:26:38;20.10;99.90
5711;DHT22;61291;52.524;13.422;2023-09-30T08:29:04;20.10;99.90
5711;DHT22;61291;52.524;13.422;2023-09-30T08:31:29;20.40;99.90
5711;DHT22;61291;52.524;13.422;2023-09-30T08:33:55;20.80;99.90
5711;DHT22;61291;52.524;13.422;2023-09-30T08:36:20;20.90;99.90
5711;DHT22;61291;52.524;13.422;2023-09-30T08:38:46;21.10;99.90
5711;DHT22;61291;52.524;13.422;2023-09-30T08:41:31;21.20;99.90
5711;DHT22;61291;52.524;13.422;2023-09-30T08:44:00;21.00;99.50
5711;DHT22;61291;52.524;13.422;2023-09-30T08:46:26;20.80;98.90
5711;DHT22;61291;52.524;13.422;2023-09-30T08:48:53;20.60;98.80
5711;DHT22;61291;52.524;13.422;2023-09-30T08:51:20;20.40;98.70
5711;DHT22;61291;52.524;13.422;2023-09-30T08:53:46;20.30;98.80
5711;DHT22;61291;52.524;13.422;2023-09-30T08:56:13;20.30;98.90
5711;DHT22;61291;52.524;13.422;2023-09-30T08:58:39;20.20;98.90
5711;DHT22;61291;52.524;13.422;2023-09-30T09:01:05;19.90;99.10
5711;DHT22;61291;52.524;13.422;2023-09-30T09:03:34;19.80;99.30
5711;DHT22;61291;52.524;13.422;2023-09-30T09:06:01;19.50;99.40
5711;DHT22;61291;52.524;13.422;2023-09-30T09:08:27;19.30;99.70
5711;DHT22;61291;52.524;13.422;2023-09-30T09:10:55;19.20;99.90
5711;DHT22;61291;52.524;13.422;2023-09-30T09:13:22;19.10;99.90
5711;DHT22;61291;52.524;13.422;2023-09-30T09:15:47;19.00;99.90
5711;DHT22;61291;52.524;13.422;2023-09-30T09:18:30;19.00;99.90
5711;DHT22;61291;52.524;13.422;2023-09-30T09:21:08;19.10;99.90
5711;DHT22;61291;52.524;13.422;2023-09-30T09:23:39;19.20;99.90
5711;DHT22;61291;52.524;13.422;2023-09-30T09:26:04;19.20;99.90
5711;DHT22;61291;52.524;13.422;2023-09-30T09:28:35;19.30;99.90
5711;DHT22;61291;52.524;13.422;2023-09-30T09:31:02;19.30;99.90
5711;DHT22;61291;52.524;13.422;2023-09-30T09:33:36;19.40;99.90
5711;DHT22;61291;52.524;13.422;2023-09-30T09:36:02;19.50;99.90
5711;DHT22;61291;52.524;13.422;2023-09-30T09:38:43;19.70;99.90
5711;DHT22;61291;52.524;13.422;2023-09-30T09:41:09;19.80;99.90
5711;DHT22;61291;52.524;13.422;2023-09-30T09:43:37;19.90;99.90
5711;DHT22;61291;52.524;13.422;2023-09-30T09:46:07;20.00;99.80
5711;DHT22;61291;52.524;13.422;2023-09-30T09:48:35;20.10;99.70
5711;DHT22;61291;52.524;13.422;2023-09-30T09:51:01;20.00;99.50
5711;DHT22;61291;52.524;13.422;2023-09-30T09:53:29;19.80;98.70
5711;DHT22;61291;52.524;13.422;2023-09-30T09:55:56;19.70;98.50
5711;DHT22;61291;52.524;13.422;2023-09-30T09:58:24;19.60;98.70
5711;DHT22;61291;52.524;13.422;2023-09-30T10:00:50;19.60;98.80
5711;DHT22;61291;52.524;13.422;2023-09-30T10:03:17;19.70;97.90
5711;DHT22;61291;52.524;13.422;2023-09-30T10:05:43;19.90;98.00
5711;DHT22;61291;52.524;13.422;2023-09-30T10:08:14;20.10;97.90
5711;DHT22;61291;52.524;13.422;2023-09-30T10:10:40;20.30;97.70
5711;DHT22;61291;52.524;13.422;2023-09-30T10:13:05;20.70;97.50
5711;DHT22;61291;52.524;13.422;2023-09-30T10:15:34;20.90;96.90
5711;DHT22;61291;52.524;13.422;2023-09-30T10:18:04;20.70;95.70
5711;DHT22;61291;52.524;13.422;2023-09-30T10:20:33;20.80;95.90
5711;DHT22;61291;52.524;13.422;2023-09-30T10:25:44;21.30;93.50
5711;DHT22;61291;52.524;13.422;2023-09-30T10:28:35;21.50;94.10
5711;DHT22;61291;52.524;13.422;2023-09-30T10:31:16;21.50;93.30
5711;DHT22;61291;52.524;13.422;2023-09-30T10:36:31;20.70;90.80
5711;DHT22;61291;52.524;13.422;2023-09-30T10:39:00;20.80;91.20
5711;DHT22;61291;52.524;13.422;2023-09-30T10:41:49;21.10;91.10
5711;DHT22;61291;52.524;13.422;2023-09-30T10:47:00;21.40;90.30
5711;DHT22;61291;52.524;13.422;2023-09-30T10:49:46;21.30;90.20
5711;DHT22;61291;52.524;13.422;2023-09-30T10:52:21;21.20;89.90
5711;DHT22;61291;52.524;13.422;2023-09-30T10:54:48;21.10;89.80
5711;DHT22;61291;52.524;13.422;2023-09-30T10:57:26;21.20;89.90
5711;DHT22;61291;52.524;13.422;2023-09-30T11:00:07;21.40;90.00
5711;DHT22;61291;52.524;13.422;2023-09-30T11:02:33;21.00;88.80
5711;DHT22;61291;52.524;13.422;2023-09-30T11:05:09;21.30;90.00
5711;DHT22;61291;52.524;13.422;2023-09-30T11:07:35;21.10;88.40
5711;DHT22;61291;52.524;13.422;2023-09-30T11:10:03;21.50;88.20
5711;DHT22;61291;52.524;13.422;2023-09-30T11:12:28;22.10;88.20
5711;DHT22;61291;52.524;13.422;2023-09-30T11:15:01;22.50;87.80
5711;DHT22;61291;52.524;13.422;2023-09-30T11:17:27;22.70;86.90
5711;DHT22;61291;52.524;13.422;2023-09-30T11:19:53;22.80;85.80
5711;DHT22;61291;52.524;13.422;2023-09-30T11:22:19;22.90;85.00
5711;DHT22;61291;52.524;13.422;2023-09-30T11:24:45;22.90;84.30
5711;DHT22;61291;52.524;13.422;2023-09-30T11:27:11;23.00;84.50
5711;DHT22;61291;52.524;13.422;2023-09-30T11:29:37;23.00;83.30
5711;DHT22;61291;52.524;13.422;2023-09-30T11:32:02;23.10;82.80
5711;DHT22;61291;52.524;13.422;2023-09-30T11:34:36;23.00;82.30
5711;DHT22;61291;52.524;13.422;2023-09-30T11:37:01;23.00;82.40
5711;DHT22;61291;52.524;13.422;2023-09-30T11:39:28;22.70;82.10
5711;DHT22;61291;52.524;13.422;2023-09-30T11:41:55;22.70;82.20
5711;DHT22;61291;52.524;13.422;2023-09-30T11:44:22;22.70;82.10
5711;DHT22;61291;52.524;13.422;2023-09-30T11:46:54;22.90;82.50
5711;DHT22;61291;52.524;13.422;2023-09-30T11:49:28;22.60;82.00
5711;DHT22;61291;52.524;13.422;2023-09-30T11:51:54;21.70;82.60
5711;DHT22;61291;52.524;13.422;2023-09-30T11:54:20;21.30;83.80
5711;DHT22;61291;52.524;13.422;2023-09-30T11:56:47;21.10;85.00
5711;DHT22;61291;52.524;13.422;2023-09-30T11:59:13;20.80;85.10
5711;DHT22;61291;52.524;13.422;2023-09-30T12:01:38;20.70;84.80
5711;DHT22;61291;52.524;13.422;2023-09-30T12:04:04;21.00;84.90
5711;DHT22;61291;52.524;13.422;2023-09-30T12:06:30;20.90;83.70
5711;DHT22;61291;52.524;13.422;2023-09-30T12:08:55;20.90;84.00
5711;DHT22;61291;52.524;13.422;2023-09-30T12:11:21;21.00;84.10
5711;DHT22;61291;52.524;13.422;2023-09-30T12:13:49;20.90;84.00
5711;DHT22;61291;52.524;13.422;2023-09-30T12:16:18;20.70;84.20
5711;DHT22;61291;52.524;13.422;2023-09-30T12:18:45;20.80;84.10
5711;DHT22;61291;52.524;13.422;2023-09-30T12:21:11;20.70;84.20
5711;DHT22;61291;52.524;13.422;2023-09-30T12:23:39;20.80;84.10
5711;DHT22;61291;52.524;13.422;2023-09-30T12:26:04;20.70;84.40
5711;DHT22;61291;52.524;13.422;2023-09-30T12:28:34;20.80;84.30
5711;DHT22;61291;52.524;13.422;2023-09-30T12:31:00;21.00;84.40
5711;DHT22;61291;52.524;13.422;2023-09-30T12:33:30;21.10;84.10
5711;DHT22;61291;52.524;13.422;2023-09-30T12:35:56;21.20;83.40
5711;DHT22;61291;52.524;13.422;2023-09-30T12:38:22;21.20;83.20
5711;DHT22;61291;52.524;13.422;2023-09-30T12:40:48;21.50;83.50
5711;DHT22;61291;52.524;13.422;2023-09-30T12:43:14;21.70;83.00
5711;DHT22;61291;52.524;13.422;2023-09-30T12:45:39;21.70;82.60
5711;DHT22;61291;52.524;13.422;2023-09-30T12:48:05;21.40;82.40
5711;DHT22;61291;52.524;13.422;2023-09-30T12:50:30;21.20;82.60
5711;DHT22;61291;52.524;13.422;2023-09-30T12:52:56;21.10;82.80
5711;DHT22;61291;52.524;13.422;2023-09-30T12:55:21;20.90;82.70
5711;DHT22;61291;52.524;13.422;2023-09-30T12:57:47;20.60;82.80
5711;DHT22;61291;52.524;13.422;2023-09-30T13:00:13;20.60;82.80
5711;DHT22;61291;52.524;13.422;2023-09-30T13:02:41;20.60;82.90
5711;DHT22;61291;52.524;13.422;2023-09-30T13:05:06;20.50;81.90
5711;DHT22;61291;52.524;13.422;2023-09-30T13:07:32;20.60;81.20
5711;DHT22;61291;52.524;13.422;2023-09-30T13:09:58;20.50;80.30
5711;DHT22;61291;52.524;13.422;2023-09-30T13:12:26;20.60;80.70
5711;DHT22;61291;52.524;13.422;2023-09-30T13:14:52;20.90;80.80
5711;DHT22;61291;52.524;13.422;2023-09-30T13:17:24;21.10;81.00
5711;DHT22;61291;52.524;13.422;2023-09-30T13:19:50;21.20;80.60
5711;DHT22;61291;52.524;13.422;2023-09-30T13:22:19;21.20;79.20
5711;DHT22;61291;52.524;13.422;2023-09-30T13:24:45;21.10;78.00
5711;DHT22;61291;52.524;13.422;2023-09-30T13:27:10;20.90;78.50
5711;DHT22;61291;52.524;13.422;2023-09-30T13:29:36;20.80;79.20
5711;DHT22;61291;52.524;13.422;2023-09-30T13:32:01;20.90;79.20
5711;DHT22;61291;52.524;13.422;2023-09-30T13:34:27;20.90;79.60
5711;DHT22;61291;52.524;13.422;2023-09-30T13:36:54;20.80;79.40
5711;DHT22;61291;52.524;13.422;2023-09-30T13:39:20;20.80;78.80
5711;DHT22;61291;52.524;13.422;2023-09-30T13:41:46;20.70;77.50
5711;DHT22;61291;52.524;13.422;2023-09-30T13:44:12;20.70;76.90
5711;DHT22;61291;52.524;13.422;2023-09-30T13:46:38;20.80;76.00
5711;DHT22;61291;52.524;13.422;2023-09-30T13:49:04;20.80;75.50
5711;DHT22;61291;52.524;13.422;2023-09-30T13:51:29;20.80;75.70
5711;DHT22;61291;52.524;13.422;2023-09-30T13:53:54;20.60;75.90
5711;DHT22;61291;52.524;13.422;2023-09-30T13:56:20;20.70;76.30
5711;DHT22;61291;52.524;13.422;2023-09-30T13:58:45;20.70;76.40
5711;DHT22;61291;52.524;13.422;2023-09-30T14:01:13;20.70;76.60
5711;DHT22;61291;52.524;13.422;2023-09-30T14:03:39;20.60;76.50
5711;DHT22;61291;52.524;13.422;2023-09-30T14:06:12;20.50;76.80
5711;DHT22;61291;52.524;13.422;2023-09-30T14:08:38;20.50;76.80
5711;DHT22;61291;52.524;13.422;2023-09-30T14:11:04;20.50;76.90
5711;DHT22;61291;52.524;13.422;2023-09-30T14:13:31;20.40;76.70
5711;DHT22;61291;52.524;13.422;2023-09-30T14:15:57;20.40;76.90
5711;DHT22;61291;52.524;13.422;2023-09-30T14:18:23;20.50;76.80
5711;DHT22;61291;52.524;13.422;2023-09-30T14:20:48;20.30;76.30
5711;DHT22;61291;52.524;13.422;2023-09-30T14:23:15;20.30;76.50
5711;DHT22;61291;52.524;13.422;2023-09-30T14:25:41;20.30;76.50
5711;DHT22;61291;52.524;13.422;2023-09-30T14:28:06;20.10;75.70
5711;DHT22;61291;52.524;13.422;2023-09-30T14:30:32;20.10;75.40
5711;DHT22;61291;52.524;13.422;2023-09-30T14:32:58;20.00;75.40
5711;DHT22;61291;52.524;13.422;2023-09-30T14:35:24;20.00;75.00
5711;DHT22;61291;52.524;13.422;2023-09-30T14:37:49;19.90;74.80
5711;DHT22;61291;52.524;13.422;2023-09-30T14:40:15;19.80;74.70
5711;DHT22;61291;52.524;13.422;2023-09-30T14:42:41;19.80;74.70
5711;DHT22;61291;52.524;13.422;2023-09-30T14:45:08;19.60;74.30
5711;DHT22;61291;52.524;13.422;2023-09-30T14:47:33;19.60;74.50
5711;DHT22;61291;52.524;13.422;2023-09-30T14:49:59;19.50;75.30
5711;DHT22;61291;52.524;13.422;2023-09-30T14:52:27;19.40;76.10
5711;DHT22;61291;52.524;13.422;2023-09-30T14:54:52;19.40;76.70
5711;DHT22;61291;52.524;13.422;2023-09-30T14:57:18;19.20;77.10
5711;DHT22;61291;52.524;13.422;2023-09-30T14:59:46;19.30;77.30
5711;DHT22;61291;52.524;13.422;2023-09-30T15:02:11;19.20;77.70
5711;DHT22;61291;52.524;13.422;2023-09-30T15:04:37;19.20;78.10
5711;DHT22;61291;52.524;13.422;2023-09-30T15:07:03;19.10;78.20
5711;DHT22;61291;52.524;13.422;2023-09-30T15:09:28;19.10;78.50
5711;DHT22;61291;52.524;13.422;2023-09-30T15:11:54;19.00;78.60
5711;DHT22;61291;52.524;13.422;2023-09-30T15:14:20;19.00;78.70
5711;DHT22;61291;52.524;13.422;2023-09-30T15:16:45;19.00;78.90
5711;DHT22;61291;52.524;13.422;2023-09-30T15:19:11;19.00;78.90
5711;DHT22;61291;52.524;13.422;2023-09-30T15:21:37;18.90;78.90
5711;DHT22;61291;52.524;13.422;2023-09-30T15:24:03;18.90;79.10
5711;DHT22;61291;52.524;13.422;2023-09-30T15:26:29;18.80;79.40
5711;DHT22;61291;52.524;13.422;2023-09-30T15:28:55;18.80;79.40
5711;DHT22;61291;52.524;13.422;2023-09-30T15:31:20;18.70;79.20
5711;DHT22;61291;52.524;13.422;2023-09-30T15:33:46;18.70;79.30
5711;DHT22;61291;52.524;13.422;2023-09-30T15:36:13;18.70;79.80